Time;durP1;ratioP1;P1;durP2;ratioP2;P2;SDS_P1;SDS_P2;PMS_P1;PMS_P2;Temp;Humidity;BMP_temperature;BMP_pressure;BME280_temperature;BME280_humidity;BME280_pressure;Samples;Min_cycle;Max_cycle;Signal;HPM_P1;HPM_P2
2023/04/30 00:01:12;;;;;;;5.50;4.57;;;14.00;99.90;;;;;;5100835;28;20237;-57
2023/04/30 00:03:39;;;;;;;5.47;4.70;;;14.00;99.90;;;;;;5100676;28;20855;-60
2023/04/30 00:06:07;;;;;;;5.97;5.37;;;14.00;99.90;;;;;;5101065;28;20224;-59
2023/04/30 00:08:34;;;;;;;5.73;5.03;;;13.90;99.90;;;;;;5102039;28;20235;-57
2023/04/30 00:11:01;;;;;;;5.43;4.63;;;13.90;99.90;;;;;;5103305;28;20277;-57
2023/04/30 00:13:28;;;;;;;8.50;5.60;;;13.90;99.90;;;;;;5101734;28;20208;-58
2023/04/30 00:15:55;;;;;;;8.30;4.97;;;14.00;99.90;;;;;;5101340;28;20224;-58
2023/04/30 00:18:21;;;;;;;6.30;5.27;;;14.00;99.90;;;;;;5100528;28;20234;-58
2023/04/30 00:20:50;;;;;;;5.43;4.90;;;14.00;99.90;;;;;;5100583;28;20231;-58
2023/04/30 00:23:19;;;;;;;6.60;5.27;;;14.00;99.90;;;;;;5100137;28;20271;-57
2023/04/30 00:25:46;;;;;;;6.00;5.23;;;14.00;99.90;;;;;;5099266;28;20292;-59
2023/04/30 00:28:12;;;;;;;5.90;4.97;;;14.10;99.90;;;;;;5100797;28;20230;-57
2023/04/30 00:30:39;;;;;;;8.10;5.40;;;14.10;99.90;;;;;;5100942;28;20246;-58
2023/04/30 00:33:06;;;;;;;7.67;5.07;;;14.10;99.90;;;;;;5100623;28;20273;-58
2023/04/30 00:35:33;;;;;;;7.10;6.07;;;14.10;99.90;;;;;;5099567;28;20223;-58
2023/04/30 00:38:00;;;;;;;7.37;5.40;;;14.10;99.90;;;;;;5099307;28;20259;-58
2023/04/30 00:40:29;;;;;;;6.57;5.70;;;14.10;99.90;;;;;;5098921;28;20236;-57
2023/04/30 00:42:56;;;;;;;6.60;5.20;;;14.10;99.90;;;;;;5098551;28;20571;-58
2023/04/30 00:45:23;;;;;;;6.33;5.27;;;14.10;99.90;;;;;;5098398;28;20208;-58
2023/04/30 00:47:50;;;;;;;6.40;5.60;;;14.00;99.90;;;;;;5098993;28;20204;-58
2023/04/30 00:50:17;;;;;;;7.47;5.93;;;14.10;99.90;;;;;;5099688;28;20590;-58
2023/04/30 00:52:44;;;;;;;7.23;6.07;;;14.10;99.90;;;;;;5099109;28;20631;-58
2023/04/30 00:55:12;;;;;;;8.47;6.47;;;14.10;99.90;;;;;;5099094;28;20224;-58
2023/04/30 00:57:40;;;;;;;7.33;5.93;;;14.00;99.90;;;;;;5099304;28;20575;-58
2023/04/30 01:00:10;;;;;;;7.57;6.03;;;14.00;99.90;;;;;;5098718;28;20704;-58
2023/04/30 01:02:37;;;;;;;6.97;5.67;;;13.90;99.90;;;;;;5099964;28;20201;-57
2023/04/30 01:05:05;;;;;;;8.37;6.30;;;13.80;99.90;;;;;;5099242;28;20752;-58
2023/04/30 01:07:32;;;;;;;6.77;6.03;;;13.80;99.90;;;;;;5100945;28;20204;-58
2023/04/30 01:09:59;;;;;;;9.57;6.57;;;13.70;99.90;;;;;;5100019;28;20232;-57
2023/04/30 01:12:32;;;;;;;7.27;6.17;;;13.70;99.90;;;;;;5100479;28;20578;-58
2023/04/30 01:15:08;;;;;;;8.33;6.40;;;13.70;99.90;;;;;;5100034;28;20250;-58
2023/04/30 01:17:41;;;;;;;8.33;6.23;;;13.70;99.90;;;;;;5099484;28;20208;-58
2023/04/30 01:20:10;;;;;;;6.97;6.03;;;13.60;99.90;;;;;;5099461;28;20231;-58
2023/04/30 01:22:47;;;;;;;7.93;6.80;;;13.60;99.90;;;;;;5098855;28;20204;-58
2023/04/30 01:25:40;;;;;;;9.13;6.83;;;13.60;99.90;;;;;;5098897;28;20215;-58
2023/04/30 01:28:10;;;;;;;8.43;7.17;;;13.60;99.90;;;;;;5098283;28;20212;-58
2023/04/30 01:30:39;;;;;;;7.90;6.57;;;13.60;99.90;;;;;;5098737;28;20825;-58
2023/04/30 01:33:06;;;;;;;7.50;6.10;;;13.60;99.90;;;;;;5098847;28;20200;-58
2023/04/30 01:35:59;;;;;;;8.10;6.43;;;13.60;99.90;;;;;;5098147;28;20288;-58
2023/04/30 01:38:40;;;;;;;7.77;6.67;;;13.50;99.90;;;;;;5095066;28;20250;-58
2023/04/30 01:41:15;;;;;;;7.60;6.73;;;13.50;99.90;;;;;;5099261;28;20201;-58
2023/04/30 01:43:55;;;;;;;7.13;6.40;;;13.50;99.90;;;;;;5098096;28;20210;-58
2023/04/30 01:46:26;;;;;;;8.60;7.27;;;13.50;99.90;;;;;;5098030;28;20195;-58
2023/04/30 01:49:01;;;;;;;7.90;6.40;;;13.50;99.90;;;;;;5098076;28;20257;-58
2023/04/30 01:51:34;;;;;;;8.83;6.97;;;13.50;99.90;;;;;;5097968;28;20226;-58
2023/04/30 01:54:06;;;;;;;9.07;7.60;;;13.50;99.90;;;;;;5097381;28;20280;-58
2023/04/30 01:56:40;;;;;;;10.80;7.30;;;13.50;99.90;;;;;;5096799;28;20277;-58
2023/04/30 01:59:08;;;;;;;8.00;6.67;;;13.50;99.90;;;;;;5097173;28;20224;-58
2023/04/30 02:01:36;;;;;;;7.77;6.83;;;13.30;99.90;;;;;;5097946;28;20200;-58
2023/04/30 02:04:03;;;;;;;7.73;6.83;;;13.20;99.90;;;;;;5097601;28;20215;-58
2023/04/30 02:06:30;;;;;;;7.97;7.17;;;13.20;99.90;;;;;;5097164;28;20675;-58
2023/04/30 02:09:01;;;;;;;10.33;6.67;;;13.30;99.90;;;;;;5097066;28;20228;-58
2023/04/30 02:11:29;;;;;;;8.07;7.27;;;13.30;99.90;;;;;;5097084;28;20285;-58
2023/04/30 02:13:55;;;;;;;8.27;7.30;;;13.30;99.90;;;;;;5096739;28;20232;-58
2023/04/30 02:16:24;;;;;;;9.77;7.07;;;13.40;99.90;;;;;;5097541;28;20307;-58
2023/04/30 02:18:52;;;;;;;9.03;7.70;;;13.40;99.90;;;;;;5097408;28;20215;-58
2023/04/30 02:21:18;;;;;;;8.80;7.07;;;13.40;99.90;;;;;;5097066;28;20236;-58
2023/04/30 02:23:46;;;;;;;7.53;6.80;;;13.40;99.90;;;;;;5097504;28;20227;-58
2023/04/30 02:26:13;;;;;;;9.00;7.90;;;13.50;99.90;;;;;;5096556;28;20201;-57
2023/04/30 02:28:39;;;;;;;9.90;7.10;;;13.50;99.90;;;;;;5097014;28;20276;-58
2023/04/30 02:31:06;;;;;;;8.27;7.20;;;13.50;99.90;;;;;;5097651;28;20215;-58
2023/04/30 02:33:34;;;;;;;10.50;7.43;;;13.50;99.90;;;;;;5097162;28;20667;-58
2023/04/30 02:36:01;;;;;;;9.13;7.53;;;13.50;99.90;;;;;;5096846;28;20220;-58
2023/04/30 02:38:28;;;;;;;8.97;7.73;;;13.40;99.90;;;;;;5096670;28;20208;-58
2023/04/30 02:40:55;;;;;;;8.57;7.03;;;13.40;99.90;;;;;;5096871;28;20600;-58
2023/04/30 02:43:22;;;;;;;8.17;7.00;;;13.30;99.90;;;;;;5097104;28;20200;-58
2023/04/30 02:45:49;;;;;;;8.03;7.20;;;13.40;99.90;;;;;;5096937;28;20204;-59
2023/04/30 02:48:16;;;;;;;8.77;7.13;;;13.40;99.90;;;;;;5097823;28;20208;-59
2023/04/30 02:50:45;;;;;;;8.70;7.17;;;13.50;99.90;;;;;;5096491;28;20231;-58
2023/04/30 02:53:12;;;;;;;8.83;7.40;;;13.40;99.90;;;;;;5096994;28;20204;-58
2023/04/30 02:55:39;;;;;;;9.53;7.07;;;13.40;99.90;;;;;;5096747;28;20224;-58
2023/04/30 02:58:06;;;;;;;8.33;7.40;;;13.30;99.90;;;;;;5096762;28;20204;-59
2023/04/30 03:00:32;;;;;;;8.73;6.63;;;13.30;99.90;;;;;;5097236;28;20232;-59
2023/04/30 03:02:59;;;;;;;10.70;7.70;;;13.40;99.90;;;;;;5096434;28;20683;-59
2023/04/30 03:05:26;;;;;;;11.60;7.53;;;13.30;99.90;;;;;;5095873;28;20668;-58
2023/04/30 03:07:55;;;;;;;8.83;7.77;;;13.30;99.90;;;;;;5096124;28;20208;-59
2023/04/30 03:10:21;;;;;;;8.70;7.27;;;13.40;99.90;;;;;;5096427;28;20224;-60
2023/04/30 03:12:48;;;;;;;10.13;7.60;;;13.40;99.90;;;;;;5096343;28;20231;-59
2023/04/30 03:15:15;;;;;;;11.03;7.73;;;13.40;99.90;;;;;;5096264;28;20576;-59
2023/04/30 03:17:42;;;;;;;9.70;7.13;;;13.40;99.90;;;;;;5095996;28;20269;-58
2023/04/30 03:20:10;;;;;;;9.03;7.30;;;13.30;99.90;;;;;;5095453;28;20718;-59
2023/04/30 03:22:37;;;;;;;10.10;7.77;;;13.30;99.90;;;;;;5095520;28;20215;-57
2023/04/30 03:25:06;;;;;;;8.57;6.90;;;13.20;99.90;;;;;;5095420;28;20208;-58
2023/04/30 03:27:33;;;;;;;7.83;7.03;;;13.20;99.90;;;;;;5095506;28;20295;-58
2023/04/30 03:30:00;;;;;;;8.63;7.60;;;13.20;99.90;;;;;;5096503;28;20232;-58
2023/04/30 03:32:27;;;;;;;9.60;8.10;;;13.20;99.90;;;;;;5096041;28;20212;-58
2023/04/30 03:34:54;;;;;;;10.77;7.80;;;13.20;99.90;;;;;;5096275;28;20589;-58
2023/04/30 03:37:20;;;;;;;9.13;7.97;;;13.10;99.90;;;;;;5096470;28;20220;-58
2023/04/30 03:39:47;;;;;;;9.33;7.60;;;13.00;99.90;;;;;;5095871;28;20327;-58
2023/04/30 03:42:16;;;;;;;10.13;7.60;;;12.90;99.90;;;;;;5096100;28;20223;-58
2023/04/30 03:44:42;;;;;;;9.07;7.57;;;12.90;99.90;;;;;;5096238;28;20200;-58
2023/04/30 03:47:10;;;;;;;9.03;7.10;;;12.90;99.90;;;;;;5096516;28;20206;-59
2023/04/30 03:49:37;;;;;;;9.67;8.10;;;12.90;99.90;;;;;;5096586;28;20737;-59
2023/04/30 03:52:04;;;;;;;10.37;8.00;;;12.90;99.90;;;;;;5096486;28;20824;-59
2023/04/30 03:54:32;;;;;;;9.07;8.17;;;12.90;99.90;;;;;;5096784;28;20228;-58
2023/04/30 03:56:59;;;;;;;10.93;8.80;;;12.80;99.90;;;;;;5096799;28;20587;-59
2023/04/30 03:59:27;;;;;;;10.47;8.47;;;12.80;99.90;;;;;;5097066;28;20318;-58
2023/04/30 04:01:54;;;;;;;10.40;8.43;;;12.70;99.90;;;;;;5096434;28;20668;-59
2023/04/30 04:04:21;;;;;;;9.20;8.23;;;12.80;99.90;;;;;;5096998;28;20291;-59
2023/04/30 04:06:48;;;;;;;12.57;8.90;;;12.70;99.90;;;;;;5095928;28;20266;-59
2023/04/30 04:09:15;;;;;;;11.70;8.60;;;12.60;99.90;;;;;;5096331;28;20243;-59
2023/04/30 04:11:42;;;;;;;12.10;9.50;;;12.60;99.90;;;;;;5097170;28;20231;-59
2023/04/30 04:14:08;;;;;;;10.27;8.57;;;12.60;99.90;;;;;;5096444;28;20264;-59
2023/04/30 04:16:37;;;;;;;10.03;8.27;;;12.60;99.90;;;;;;5096143;28;20223;-59
2023/04/30 04:19:05;;;;;;;13.63;8.77;;;12.70;99.90;;;;;;5096477;28;20220;-58
2023/04/30 04:21:32;;;;;;;9.07;8.17;;;12.70;99.90;;;;;;5100508;28;20292;-58
2023/04/30 04:24:01;;;;;;;9.63;8.23;;;12.70;99.90;;;;;;5100779;28;20212;-58
2023/04/30 04:26:28;;;;;;;9.37;7.43;;;12.70;99.90;;;;;;5100242;28;20261;-58
2023/04/30 04:28:55;;;;;;;10.00;8.00;;;12.70;99.90;;;;;;5100453;28;20228;-59
2023/04/30 04:31:22;;;;;;;9.53;8.10;;;12.80;99.90;;;;;;5100108;28;20201;-58
2023/04/30 04:33:56;;;;;;;9.07;7.90;;;12.70;99.90;;;;;;5099935;28;20291;-59
2023/04/30 04:36:23;;;;;;;11.73;7.57;;;12.80;99.90;;;;;;5100213;28;20219;-59
2023/04/30 04:38:51;;;;;;;8.37;7.53;;;12.80;99.90;;;;;;5100616;28;20234;-58
2023/04/30 04:41:18;;;;;;;8.93;7.17;;;12.80;99.90;;;;;;5099529;28;20208;-59
2023/04/30 04:43:45;;;;;;;8.97;7.47;;;12.80;99.90;;;;;;5099102;28;20298;-60
2023/04/30 04:46:15;;;;;;;8.37;7.20;;;12.90;99.90;;;;;;5099095;28;20200;-60
2023/04/30 04:48:42;;;;;;;8.27;7.37;;;13.00;99.90;;;;;;5099266;28;20227;-60
2023/04/30 04:51:10;;;;;;;9.43;6.87;;;13.10;99.90;;;;;;5099216;28;20200;-60
2023/04/30 04:53:37;;;;;;;8.20;7.27;;;13.20;99.90;;;;;;5099426;28;20564;-60
2023/04/30 04:56:05;;;;;;;8.83;7.27;;;13.30;99.90;;;;;;5099065;28;20220;-60
2023/04/30 04:58:31;;;;;;;9.83;7.93;;;13.40;99.90;;;;;;5098857;28;20299;-60
2023/04/30 05:00:59;;;;;;;7.40;6.60;;;13.50;99.90;;;;;;5099058;28;20231;-59
2023/04/30 05:03:26;;;;;;;9.87;6.73;;;13.50;99.90;;;;;;5099017;28;20215;-61
2023/04/30 05:05:53;;;;;;;8.27;7.27;;;13.60;99.90;;;;;;5099017;28;20196;-61
2023/04/30 05:08:21;;;;;;;10.10;7.83;;;13.70;99.90;;;;;;5099179;28;20261;-59
2023/04/30 05:10:48;;;;;;;9.07;7.00;;;13.80;99.90;;;;;;5099742;28;20311;-63
2023/04/30 05:13:15;;;;;;;10.27;7.70;;;13.70;99.90;;;;;;5098618;28;20218;-60
2023/04/30 05:15:42;;;;;;;8.80;7.63;;;13.70;99.90;;;;;;5099763;28;20214;-59
2023/04/30 05:18:09;;;;;;;7.90;7.07;;;13.70;99.90;;;;;;5099475;28;20203;-59
2023/04/30 05:20:36;;;;;;;9.27;7.63;;;13.70;99.90;;;;;;5098633;28;20235;-59
2023/04/30 05:23:03;;;;;;;8.10;7.10;;;13.70;99.90;;;;;;5099410;28;20204;-58
2023/04/30 05:25:31;;;;;;;9.50;7.77;;;13.80;99.90;;;;;;5098468;28;20648;-57
2023/04/30 05:27:58;;;;;;;7.73;6.93;;;13.80;99.90;;;;;;5098843;28;20578;-60
2023/04/30 05:30:25;;;;;;;8.20;7.40;;;13.90;99.90;;;;;;5098663;28;20726;-60
2023/04/30 05:32:52;;;;;;;9.10;7.53;;;14.10;99.90;;;;;;5098667;28;20201;-59
2023/04/30 05:35:19;;;;;;;8.03;6.63;;;14.20;99.90;;;;;;5098901;28;20389;-61
2023/04/30 05:37:46;;;;;;;9.00;7.20;;;14.60;99.90;;;;;;5099345;28;20228;-59
2023/04/30 05:40:14;;;;;;;7.80;7.03;;;15.20;99.90;;;;;;5098288;28;20264;-59
2023/04/30 05:42:43;;;;;;;7.37;6.63;;;15.80;99.90;;;;;;5099514;28;20256;-59
2023/04/30 05:45:11;;;;;;;7.55;6.75;;;16.70;99.90;;;;;;5098350;28;20610;-59
2023/04/30 05:47:38;;;;;;;9.73;6.43;;;17.80;99.90;;;;;;5099355;28;20749;-60
2023/04/30 05:50:06;;;;;;;6.60;5.90;;;18.60;99.90;;;;;;5099042;28;20723;-60
2023/04/30 05:52:32;;;;;;;8.35;6.43;;;19.40;99.90;;;;;;5098227;28;20629;-59
2023/04/30 05:54:59;;;;;;;6.80;6.20;;;19.80;99.90;;;;;;5098266;28;20205;-60
2023/04/30 05:57:26;;;;;;;6.78;6.15;;;19.90;99.90;;;;;;5098329;28;20701;-63
2023/04/30 05:59:54;;;;;;;6.63;5.88;;;19.90;99.90;;;;;;5099216;28;20230;-61
2023/04/30 06:02:21;;;;;;;6.90;6.22;;;19.50;99.90;;;;;;5098637;28;20632;-60
2023/04/30 06:04:48;;;;;;;6.82;5.90;;;19.20;99.90;;;;;;5097960;28;20204;-58
2023/04/30 06:07:15;;;;;;;6.82;6.13;;;19.00;99.90;;;;;;5098250;28;20664;-60
2023/04/30 06:09:42;;;;;;;6.18;5.50;;;19.60;99.90;;;;;;5098607;28;20635;-60
2023/04/30 06:12:10;;;;;;;6.47;5.88;;;20.30;99.90;;;;;;5098188;28;20200;-60
2023/04/30 06:14:37;;;;;;;7.80;6.35;;;20.80;99.90;;;;;;5098177;28;20204;-60
2023/04/30 06:17:05;;;;;;;8.00;6.40;;;21.20;99.90;;;;;;5099061;28;20306;-60
2023/04/30 06:19:32;;;;;;;8.07;5.97;;;21.20;99.90;;;;;;5098193;28;20311;-60
2023/04/30 06:21:58;;;;;;;8.32;5.47;;;20.80;99.90;;;;;;5098896;28;20686;-58
2023/04/30 06:24:26;;;;;;;6.60;5.90;;;20.30;99.90;;;;;;5098885;28;20741;-61
2023/04/30 06:26:53;;;;;;;7.18;5.88;;;19.70;99.90;;;;;;5098106;28;20580;-59
2023/04/30 06:29:23;;;;;;;7.22;6.53;;;19.30;99.90;;;;;;5097988;28;20220;-61
2023/04/30 06:31:50;;;;;;;6.72;5.70;;;19.10;99.90;;;;;;5098339;28;20196;-60
2023/04/30 06:34:19;;;;;;;7.47;6.07;;;19.00;99.90;;;;;;5097845;28;20234;-60
2023/04/30 06:36:46;;;;;;;6.90;5.68;;;18.90;99.90;;;;;;5097877;28;20573;-59
2023/04/30 06:39:15;;;;;;;7.03;6.32;;;19.00;99.90;;;;;;5097892;28;20304;-60
2023/04/30 06:41:42;;;;;;;8.27;5.95;;;19.30;99.90;;;;;;5097901;28;20257;-60
2023/04/30 06:44:10;;;;;;;7.70;5.90;;;19.90;99.90;;;;;;5097629;28;20200;-60
2023/04/30 06:46:37;;;;;;;6.28;5.50;;;20.30;99.90;;;;;;5097960;28;20497;-61
2023/04/30 06:49:04;;;;;;;6.10;5.50;;;20.90;99.90;;;;;;5098414;28;20314;-60
2023/04/30 06:51:32;;;;;;;7.43;5.07;;;21.30;99.90;;;;;;5097669;28;20265;-61
2023/04/30 06:53:59;;;;;;;6.15;5.50;;;21.50;99.90;;;;;;5098056;28;20211;-61
2023/04/30 06:56:26;;;;;;;5.93;5.32;;;21.30;99.90;;;;;;5097469;28;20671;-60
2023/04/30 06:58:53;;;;;;;7.53;5.78;;;21.60;99.90;;;;;;5097219;28;20739;-59
2023/04/30 07:01:20;;;;;;;4.95;4.45;;;22.10;99.90;;;;;;5097543;28;20326;-61
2023/04/30 07:03:47;;;;;;;5.43;4.90;;;22.80;98.80;;;;;;5097579;28;20571;-63
2023/04/30 07:06:14;;;;;;;6.00;4.95;;;23.30;97.60;;;;;;5098269;28;20212;-61
2023/04/30 07:08:42;;;;;;;5.25;4.75;;;24.10;96.70;;;;;;5097372;28;20291;-62
2023/04/30 07:11:10;;;;;;;5.65;4.55;;;24.50;95.40;;;;;;5098681;28;20204;-62
2023/04/30 07:13:37;;;;;;;5.55;4.63;;;24.40;95.20;;;;;;5099066;28;20726;-60
2023/04/30 07:16:04;;;;;;;7.32;4.25;;;24.60;94.00;;;;;;5097635;28;20230;-62
2023/04/30 07:18:32;;;;;;;11.50;7.15;;;24.70;93.80;;;;;;5097552;28;20224;-62
2023/04/30 07:20:59;;;;;;;10.07;4.38;;;25.40;93.10;;;;;;5098747;28;20236;-60
2023/04/30 07:23:25;;;;;;;4.40;4.00;;;26.20;91.10;;;;;;5098042;28;20212;-62
2023/04/30 07:25:54;;;;;;;4.63;3.95;;;26.90;88.90;;;;;;5097975;28;20212;-62
2023/04/30 07:28:20;;;;;;;4.20;3.67;;;27.20;85.20;;;;;;5098343;28;20298;-62
2023/04/30 07:30:48;;;;;;;5.38;3.63;;;27.20;83.80;;;;;;5097670;28;20224;-62
2023/04/30 07:33:15;;;;;;;4.75;3.90;;;27.50;84.10;;;;;;5098455;28;20231;-62
2023/04/30 07:35:42;;;;;;;5.05;3.80;;;27.90;79.50;;;;;;5097942;28;20207;-62
2023/04/30 07:38:09;;;;;;;5.65;3.90;;;28.10;77.50;;;;;;5097293;28;20250;-62
2023/04/30 07:40:36;;;;;;;3.53;3.22;;;27.90;76.80;;;;;;5098235;28;20352;-62
2023/04/30 07:43:05;;;;;;;4.32;3.60;;;28.30;76.20;;;;;;5096358;28;20244;-62
2023/04/30 07:45:33;;;;;;;4.20;3.47;;;28.70;72.90;;;;;;5097949;28;20212;-62
2023/04/30 07:48:00;;;;;;;4.03;3.22;;;28.50;71.50;;;;;;5096713;28;20196;-66
2023/04/30 07:50:32;;;;;;;3.65;3.08;;;28.10;71.00;;;;;;5094831;28;20227;-59
2023/04/30 07:52:59;;;;;;;4.95;3.47;;;27.70;69.80;;;;;;5094519;28;20664;-59
2023/04/30 07:55:26;;;;;;;5.63;3.00;;;27.90;67.60;;;;;;5096042;28;20244;-59
2023/04/30 07:57:53;;;;;;;2.67;2.40;;;28.00;67.00;;;;;;5098108;28;20231;-59
2023/04/30 08:00:21;;;;;;;3.47;2.70;;;28.00;66.30;;;;;;5098423;28;20228;-59
2023/04/30 08:02:49;;;;;;;2.83;2.53;;;27.80;65.40;;;;;;5098400;28;20192;-60
2023/04/30 08:05:15;;;;;;;3.13;2.60;;;27.40;65.00;;;;;;5098388;28;20208;-60
2023/04/30 08:07:43;;;;;;;3.60;2.97;;;27.30;65.60;;;;;;5098118;28;20197;-60
2023/04/30 08:10:10;;;;;;;3.88;2.40;;;26.90;65.60;;;;;;5099088;28;20567;-60
2023/04/30 08:12:38;;;;;;;3.08;2.65;;;27.20;65.20;;;;;;5098412;28;20283;-60
2023/04/30 08:15:06;;;;;;;3.47;2.17;;;27.40;61.90;;;;;;5099670;28;20257;-60
2023/04/30 08:17:35;;;;;;;3.25;2.13;;;26.50;63.80;;;;;;5098526;28;20298;-60
2023/04/30 08:20:03;;;;;;;3.22;2.35;;;25.10;66.40;;;;;;5099850;28;20231;-60
2023/04/30 08:22:30;;;;;;;3.03;2.50;;;23.80;69.10;;;;;;5100665;28;20200;-60
2023/04/30 08:24:57;;;;;;;2.92;2.22;;;23.40;70.60;;;;;;5100632;28;20200;-59
2023/04/30 08:27:24;;;;;;;2.63;2.38;;;23.40;69.00;;;;;;5100591;28;20205;-59
2023/04/30 08:29:50;;;;;;;2.13;1.92;;;22.80;70.30;;;;;;5100146;28;20223;-59
2023/04/30 08:32:19;;;;;;;2.60;2.20;;;22.00;70.90;;;;;;5099910;28;20208;-59
2023/04/30 08:34:47;;;;;;;3.28;1.90;;;21.30;73.10;;;;;;5100149;28;20200;-59
2023/04/30 08:37:14;;;;;;;2.00;1.77;;;20.60;72.00;;;;;;5099932;28;20696;-59
2023/04/30 08:39:41;;;;;;;2.38;1.77;;;20.10;70.90;;;;;;5099631;28;20262;-59
2023/04/30 08:42:09;;;;;;;3.00;2.20;;;19.70;73.80;;;;;;5100099;28;20204;-59
2023/04/30 08:44:42;;;;;;;2.40;2.10;;;19.60;77.30;;;;;;5099341;28;20200;-59
2023/04/30 08:47:13;;;;;;;2.38;1.98;;;19.60;76.80;;;;;;5098654;28;20209;-59
2023/04/30 08:49:40;;;;;;;3.90;2.40;;;19.50;76.60;;;;;;5098482;28;20232;-59
2023/04/30 08:52:09;;;;;;;3.83;2.50;;;19.20;79.50;;;;;;5098001;28;20204;-59
2023/04/30 08:54:37;;;;;;;2.70;2.50;;;19.00;80.40;;;;;;5097904;28;20284;-59
2023/04/30 08:57:05;;;;;;;3.00;2.20;;;18.80;81.50;;;;;;5097476;28;20254;-59
2023/04/30 08:59:32;;;;;;;4.80;2.10;;;18.90;80.90;;;;;;5096809;28;20228;-59
2023/04/30 09:02:00;;;;;;;2.25;1.83;;;18.80;80.30;;;;;;5096785;28;20235;-59
2023/04/30 09:04:28;;;;;;;2.53;1.73;;;18.80;81.20;;;;;;5096579;28;20205;-57
2023/04/30 09:06:57;;;;;;;2.03;1.77;;;18.80;79.90;;;;;;5095865;28;20672;-62
2023/04/30 09:09:29;;;;;;;2.13;1.90;;;19.00;79.90;;;;;;5097539;28;20228;-60
2023/04/30 09:12:12;;;;;;;3.58;2.08;;;19.10;82.70;;;;;;5096572;28;20232;-60
2023/04/30 09:14:40;;;;;;;2.65;2.20;;;19.40;81.20;;;;;;5097959;28;20564;-60
2023/04/30 09:17:08;;;;;;;3.90;2.80;;;19.60;82.90;;;;;;5096939;28;20257;-60
2023/04/30 09:19:36;;;;;;;3.70;2.50;;;19.70;83.30;;;;;;5097050;28;20591;-61
2023/04/30 09:22:20;;;;;;;3.40;2.22;;;19.70;83.90;;;;;;5097280;28;20200;-61
2023/04/30 09:24:49;;;;;;;2.78;2.15;;;19.70;83.00;;;;;;5096706;28;20211;-60
2023/04/30 09:27:18;;;;;;;3.08;2.20;;;19.70;81.70;;;;;;5096284;28;20207;-60
2023/04/30 09:29:45;;;;;;;5.20;2.42;;;19.70;80.60;;;;;;5097257;28;20307;-60
2023/04/30 09:32:13;;;;;;;2.50;2.30;;;19.70;81.60;;;;;;5096741;28;20257;-60
2023/04/30 09:34:42;;;;;;;2.03;1.83;;;19.70;81.00;;;;;;5096670;28;20216;-60
2023/04/30 09:37:09;;;;;;;4.45;2.38;;;19.50;81.30;;;;;;5096244;28;20729;-60
2023/04/30 09:39:49;;;;;;;3.33;2.20;;;19.60;82.00;;;;;;5096320;28;20238;-61
2023/04/30 09:42:16;;;;;;;2.92;2.05;;;19.60;81.60;;;;;;5096787;28;20247;-61
2023/04/30 09:44:43;;;;;;;3.80;2.35;;;19.50;83.40;;;;;;5096044;28;20214;-61
2023/04/30 09:47:15;;;;;;;6.30;2.65;;;19.50;81.30;;;;;;5096062;28;20582;-61
2023/04/30 09:49:43;;;;;;;4.10;2.70;;;19.60;82.30;;;;;;5096164;28;20236;-61
2023/04/30 09:52:11;;;;;;;3.53;2.50;;;19.80;81.30;;;;;;5096120;28;20208;-61
2023/04/30 09:54:39;;;;;;;4.15;2.65;;;19.60;80.50;;;;;;5095446;28;20297;-61
2023/04/30 09:57:10;;;;;;;2.85;2.13;;;19.50;80.60;;;;;;5094789;28;20208;-61
2023/04/30 09:59:38;;;;;;;5.88;2.40;;;19.30;81.80;;;;;;5095318;28;20311;-61
2023/04/30 10:02:06;;;;;;;4.10;2.28;;;19.30;83.10;;;;;;5095371;28;20693;-61
2023/04/30 10:04:35;;;;;;;2.20;2.00;;;19.50;82.20;;;;;;5095053;28;20226;-61
2023/04/30 10:07:06;;;;;;;2.80;2.22;;;19.50;81.10;;;;;;5094961;28;20687;-61
2023/04/30 10:09:41;;;;;;;3.30;2.50;;;19.50;81.60;;;;;;5095873;28;20232;-61
2023/04/30 10:12:17;;;;;;;3.65;2.40;;;19.50;81.90;;;;;;5095785;28;20229;-61
2023/04/30 10:14:50;;;;;;;2.95;2.28;;;19.40;82.20;;;;;;5095315;28;20203;-61
2023/04/30 10:17:18;;;;;;;2.58;2.30;;;19.50;82.20;;;;;;5094038;28;20204;-61
2023/04/30 10:19:48;;;;;;;3.63;2.30;;;19.80;81.90;;;;;;5095089;28;20325;-61
2023/04/30 10:22:16;;;;;;;3.45;2.20;;;20.00;80.50;;;;;;5095019;28;20210;-61
2023/04/30 10:24:43;;;;;;;3.47;2.50;;;20.10;80.60;;;;;;5094599;28;20300;-61
2023/04/30 10:27:12;;;;;;;3.90;2.63;;;20.40;80.00;;;;;;5094728;28;20254;-61
2023/04/30 10:29:38;;;;;;;3.97;2.50;;;20.40;79.10;;;;;;5094171;28;20319;-60
2023/04/30 10:32:07;;;;;;;2.60;2.40;;;20.10;80.20;;;;;;5094568;28;20576;-60
2023/04/30 10:34:44;;;;;;;3.95;3.28;;;20.10;80.50;;;;;;5096244;28;20235;-61
2023/04/30 10:37:21;;;;;;;3.45;2.65;;;20.00;80.70;;;;;;5095299;28;20200;-60
2023/04/30 10:39:48;;;;;;;3.47;2.72;;;20.00;80.00;;;;;;5094907;28;20232;-61
2023/04/30 10:42:16;;;;;;;2.78;2.47;;;19.90;80.40;;;;;;5093987;28;20204;-60
2023/04/30 10:44:43;;;;;;;3.80;2.78;;;19.70;80.70;;;;;;5094697;28;20290;-61
2023/04/30 10:47:10;;;;;;;4.07;2.75;;;19.80;80.70;;;;;;5094682;28;20249;-61
2023/04/30 10:49:37;;;;;;;3.55;2.50;;;20.10;81.00;;;;;;5095117;28;20301;-61
2023/04/30 10:52:06;;;;;;;4.15;2.90;;;20.30;79.00;;;;;;5095898;28;20265;-60
2023/04/30 10:54:36;;;;;;;3.78;2.50;;;20.40;79.40;;;;;;5095851;28;20235;-60
2023/04/30 10:57:13;;;;;;;4.43;2.72;;;20.40;78.90;;;;;;5095153;28;20212;-60
2023/04/30 10:59:45;;;;;;;3.20;2.60;;;20.40;79.10;;;;;;5095285;28;20228;-61
2023/04/30 11:02:16;;;;;;;2.90;2.40;;;20.20;79.40;;;;;;5095315;28;20199;-62
2023/04/30 11:05:21;;;;;;;4.72;2.88;;;20.20;79.40;;;;;;5093982;28;20561;-61
2023/04/30 11:07:49;;;;;;;3.30;2.72;;;20.10;79.50;;;;;;5093974;28;20204;-61
2023/04/30 11:10:16;;;;;;;2.53;2.30;;;20.20;78.30;;;;;;5093763;28;20227;-61
2023/04/30 11:12:48;;;;;;;2.92;2.40;;;20.30;78.40;;;;;;5094278;28;20210;-61
2023/04/30 11:15:18;;;;;;;3.53;2.33;;;20.70;78.80;;;;;;5093881;28;20208;-61
2023/04/30 11:17:46;;;;;;;2.83;2.38;;;21.10;78.40;;;;;;5093361;28;20303;-61
2023/04/30 11:20:13;;;;;;;2.95;2.65;;;21.50;77.10;;;;;;5094235;28;20590;-61
2023/04/30 11:22:41;;;;;;;3.58;2.40;;;21.30;77.20;;;;;;5093900;28;20236;-61
2023/04/30 11:25:10;;;;;;;2.85;2.10;;;21.30;77.70;;;;;;5093666;28;20287;-61
2023/04/30 11:27:38;;;;;;;2.92;2.25;;;21.20;76.40;;;;;;5094468;28;20281;-61
2023/04/30 11:30:13;;;;;;;3.33;2.10;;;21.00;75.00;;;;;;5094613;28;20268;-61
2023/04/30 11:32:45;;;;;;;2.72;1.90;;;20.90;75.10;;;;;;5094802;28;20646;-61
2023/04/30 11:35:12;;;;;;;2.90;1.70;;;20.90;74.00;;;;;;5094744;28;20208;-61
2023/04/30 11:37:43;;;;;;;2.22;2.03;;;20.80;74.80;;;;;;5094547;28;20204;-61
2023/04/30 11:40:11;;;;;;;2.53;1.98;;;20.90;75.60;;;;;;5094549;28;20246;-61
2023/04/30 11:42:40;;;;;;;2.72;2.05;;;20.90;75.80;;;;;;5094245;28;20275;-62
2023/04/30 11:45:09;;;;;;;4.53;2.10;;;21.00;77.00;;;;;;5094889;28;20251;-61
2023/04/30 11:47:42;;;;;;;3.13;1.77;;;21.30;76.60;;;;;;5094614;28;20211;-61
2023/04/30 11:50:09;;;;;;;6.75;2.60;;;21.60;76.80;;;;;;5094496;28;20220;-61
2023/04/30 11:52:36;;;;;;;3.83;2.33;;;21.60;75.10;;;;;;5094950;28;20238;-60
2023/04/30 11:55:07;;;;;;;3.00;2.30;;;21.60;75.90;;;;;;5093823;28;20240;-61
2023/04/30 11:57:41;;;;;;;3.03;2.30;;;21.70;74.60;;;;;;5094162;28;20598;-61
2023/04/30 12:00:10;;;;;;;2.63;2.25;;;21.90;74.10;;;;;;5094217;28;20312;-61
2023/04/30 12:02:38;;;;;;;3.42;2.28;;;21.90;74.90;;;;;;5094670;28;20253;-61
2023/04/30 12:05:12;;;;;;;2.60;2.40;;;21.60;75.10;;;;;;5094190;28;20227;-61
2023/04/30 12:07:39;;;;;;;2.75;2.10;;;21.50;74.40;;;;;;5094918;28;20215;-61
2023/04/30 12:10:08;;;;;;;2.75;2.03;;;21.50;73.90;;;;;;5095348;28;20759;-61
2023/04/30 12:12:37;;;;;;;2.60;1.95;;;21.60;73.70;;;;;;5095289;28;20747;-61
2023/04/30 12:15:12;;;;;;;1.98;1.75;;;21.70;73.50;;;;;;5094584;28;20555;-61
2023/04/30 12:17:38;;;;;;;2.92;2.15;;;21.60;73.60;;;;;;5094450;28;20203;-61
2023/04/30 12:20:08;;;;;;;2.70;2.10;;;21.60;74.10;;;;;;5093779;28;20228;-60
2023/04/30 12:22:36;;;;;;;5.55;2.00;;;21.80;74.60;;;;;;5093909;28;20277;-61
2023/04/30 12:25:06;;;;;;;2.70;1.92;;;21.90;73.30;;;;;;5093818;28;20278;-61
2023/04/30 12:27:35;;;;;;;3.20;2.13;;;22.00;73.50;;;;;;5092982;28;20210;-61
2023/04/30 12:30:06;;;;;;;2.28;1.80;;;22.10;74.10;;;;;;5094020;28;20235;-61
2023/04/30 12:32:38;;;;;;;2.13;1.92;;;22.10;74.20;;;;;;5094704;28;20208;-61
2023/04/30 12:35:07;;;;;;;2.33;1.90;;;22.00;73.40;;;;;;5093597;28;20215;-61
2023/04/30 12:37:34;;;;;;;3.58;1.92;;;21.90;72.70;;;;;;5094169;28;20211;-61
2023/04/30 12:40:01;;;;;;;2.75;2.00;;;21.80;72.30;;;;;;5094926;28;20751;-61
2023/04/30 12:42:33;;;;;;;2.88;2.20;;;21.80;72.60;;;;;;5098374;28;20295;-61
2023/04/30 12:45:00;;;;;;;2.13;1.90;;;21.70;73.20;;;;;;5097685;28;20219;-61
2023/04/30 12:47:27;;;;;;;3.75;2.05;;;21.50;73.00;;;;;;5097649;28;20234;-61
2023/04/30 12:49:55;;;;;;;2.10;1.90;;;21.30;73.60;;;;;;5097463;28;20251;-62
2023/04/30 12:52:25;;;;;;;8.75;2.38;;;21.20;74.70;;;;;;5098462;28;20239;-61